Time;durP1;ratioP1;P1;durP2;ratioP2;P2;SDS_P1;SDS_P2;PMS_P1;PMS_P2;Temp;Humidity;BMP_temperature;BMP_pressure;BME280_temperature;BME280_humidity;BME280_pressure;Samples;Min_cycle;Max_cycle;Signal;HPM_P1;HPM_P2
2022/08/24 00:02:03;;;;;;;7.90;7.22;;;;;;;19.18;88.14;101799.94;5012324;28;20053;-75
2022/08/24 00:04:30;;;;;;;10.13;7.65;;;;;;;19.14;88.25;101802.84;4994726;28;20054;-75
2022/08/24 00:06:58;;;;;;;8.35;7.68;;;;;;;19.10;88.18;101801.56;5010896;28;20046;-75
2022/08/24 00:09:24;;;;;;;8.82;7.40;;;;;;;19.08;88.29;101795.88;5011975;28;20047;-75
2022/08/24 00:11:51;;;;;;;9.07;7.90;;;;;;;19.03;87.97;101807.34;5012205;28;20054;-75
2022/08/24 00:14:18;;;;;;;10.82;7.55;;;;;;;18.99;87.91;101802.16;5012085;28;20046;-76
2022/08/24 00:16:45;;;;;;;8.93;7.97;;;;;;;18.97;87.88;101805.31;5012090;28;20050;-75
2022/08/24 00:19:12;;;;;;;9.13;7.28;;;;;;;18.95;87.95;101809.72;5012715;28;20046;-75
2022/08/24 00:21:38;;;;;;;8.43;7.60;;;;;;;18.88;88.71;101805.44;5017089;28;20054;-75
2022/08/24 00:24:05;;;;;;;7.65;7.05;;;;;;;18.87;88.46;101806.66;5018666;28;20102;-75
2022/08/24 00:26:32;;;;;;;8.50;7.70;;;;;;;18.87;88.25;101803.97;5018568;28;20445;-75
2022/08/24 00:28:58;;;;;;;8.75;7.85;;;;;;;18.83;88.72;101808.06;5016643;28;20050;-75
2022/08/24 00:31:29;;;;;;;9.75;7.43;;;;;;;18.73;89.25;101812.13;5017178;28;20141;-75
2022/08/24 00:33:57;;;;;;;9.18;8.27;;;;;;;18.71;89.10;101809.16;5018419;28;20510;-75
2022/08/24 00:36:23;;;;;;;9.30;7.88;;;;;;;18.70;88.64;101811.13;5018300;28;20053;-75
2022/08/24 00:38:50;;;;;;;10.35;7.78;;;;;;;18.65;88.90;101806.38;5017063;28;20503;-75
2022/08/24 00:41:17;;;;;;;8.90;8.00;;;;;;;18.64;88.64;101802.94;5017449;28;20050;-76
2022/08/24 00:43:57;;;;;;;12.02;8.52;;;;;;;18.66;88.77;101813.25;5016402;28;20550;-75
2022/08/24 00:46:56;;;;;;;10.10;8.90;;;;;;;18.63;88.40;101808.81;5018234;28;20046;-75
2022/08/24 00:49:26;;;;;;;11.20;8.25;;;;;;;18.58;88.44;101812.88;5015811;28;20058;-75
2022/08/24 00:52:11;;;;;;;9.40;8.48;;;;;;;18.59;88.58;101816.31;5016932;28;20046;-76
2022/08/24 00:54:45;;;;;;;12.93;9.13;;;;;;;18.54;89.32;101811.59;5016539;28;20061;-75
2022/08/24 00:57:15;;;;;;;12.70;8.98;;;;;;;18.50;89.86;101806.38;5018549;28;20523;-75
2022/08/24 00:59:47;;;;;;;9.45;8.18;;;;;;;18.49;89.59;101802.19;5035528;28;20054;-75
2022/08/24 01:02:19;;;;;;;8.68;7.88;;;;;;;18.47;89.37;101804.63;5053074;28;20053;-75
2022/08/24 01:04:52;;;;;;;;;;;;;;;18.50;88.24;101805.63;5037767;28;20601;-75
2022/08/24 01:07:21;;;;;;;9.23;7.90;;;;;;;18.41;89.70;101806.50;5037275;28;19925;-75
2022/08/24 01:09:50;;;;;;;9.30;8.25;;;;;;;18.39;89.75;101802.81;5035495;28;20050;-75
2022/08/24 01:12:17;;;;;;;8.23;7.43;;;;;;;18.37;89.66;101800.56;5036228;28;20054;-75
2022/08/24 01:14:44;;;;;;;7.82;7.00;;;;;;;18.36;88.92;101799.09;5036357;28;20049;-75
2022/08/24 01:20:05;;;;;;;7.10;6.60;;;;;;;18.36;89.56;101792.97;5036406;28;20050;-75
2022/08/24 01:22:53;;;;;;;7.88;7.28;;;;;;;18.36;89.61;101793.69;5036299;28;20124;-75
2022/08/24 01:25:23;;;;;;;7.50;6.90;;;;;;;18.33;89.48;101792.69;5036401;28;20510;-75
2022/08/24 01:27:55;;;;;;;7.20;6.70;;;;;;;18.32;89.41;101799.28;5038062;28;20042;-75
2022/08/24 01:30:22;;;;;;;7.30;6.70;;;;;;;18.29;89.80;101794.06;5019937;28;20108;-75
2022/08/24 01:33:03;;;;;;;7.60;6.90;;;;;;;18.27;90.12;101796.50;5033835;28;20038;-74
2022/08/24 01:35:30;;;;;;;7.45;6.88;;;;;;;18.21;90.25;101798.38;5032889;28;20054;-75
2022/08/24 01:38:00;;;;;;;7.15;6.63;;;;;;;18.21;90.32;101795.66;5032891;28;20053;-75
2022/08/24 01:40:39;;;;;;;7.80;7.10;;;;;;;18.19;90.29;101790.00;5032129;28;20077;-75
2022/08/24 01:43:06;;;;;;;8.38;7.57;;;;;;;18.13;90.59;101794.56;5032903;28;20107;-75
2022/08/24 01:45:33;;;;;;;7.93;7.30;;;;;;;18.08;90.13;101798.66;5016393;28;20050;-75
2022/08/24 01:48:02;;;;;;;7.55;6.85;;;;;;;18.03;90.27;101803.94;5032687;28;20054;-75
2022/08/24 01:50:30;;;;;;;6.78;6.28;;;;;;;17.99;90.58;101799.47;5032700;28;20065;-75
2022/08/24 01:53:00;;;;;;;7.22;6.57;;;;;;;17.99;90.67;101798.75;5032429;28;20049;-75
2022/08/24 01:55:32;;;;;;;6.90;6.40;;;;;;;17.97;89.69;101801.91;5032343;28;20058;-75
2022/08/24 01:57:59;;;;;;;7.20;6.50;;;;;;;17.90;90.74;101807.69;5049365;28;20904;-75
2022/08/24 02:00:28;;;;;;;7.95;6.22;;;;;;;17.81;91.60;101810.44;5032461;28;20061;-75
2022/08/24 02:02:55;;;;;;;7.43;6.80;;;;;;;17.79;91.70;101810.19;5033999;28;20042;-75
2022/08/24 02:05:23;;;;;;;7.60;6.90;;;;;;;17.78;91.14;101819.47;5032147;28;20077;-75
2022/08/24 02:07:50;;;;;;;8.52;7.47;;;;;;;17.78;91.28;101813.31;5048418;28;20553;-75
2022/08/24 02:10:20;;;;;;;9.32;8.45;;;;;;;17.76;91.16;101811.09;5032210;28;20503;-75
2022/08/24 02:12:56;;;;;;;8.93;8.23;;;;;;;17.76;91.78;101813.03;5032343;28;20050;-75
2022/08/24 02:15:38;;;;;;;9.63;7.95;;;;;;;17.74;91.78;101812.75;5033846;28;20106;-74
2022/08/24 02:18:10;;;;;;;9.00;8.13;;;;;;;17.73;91.83;101825.47;5032034;28;20425;-74
2022/08/24 02:20:41;;;;;;;9.27;8.43;;;;;;;17.69;92.16;101824.19;5032567;28;20423;-74
2022/08/24 02:23:08;;;;;;;9.27;8.43;;;;;;;17.63;92.31;101821.34;5031639;28;21034;-74
2022/08/24 02:25:35;;;;;;;8.77;7.97;;;;;;;17.62;92.71;101815.22;5031969;28;20058;-74
2022/08/24 02:28:02;;;;;;;12.98;7.70;;;;;;;17.65;91.29;101821.66;5033695;28;20046;-74
2022/08/24 02:30:29;;;;;;;7.97;7.28;;;;;;;17.65;91.28;101822.41;5032004;28;20113;-74
2022/08/24 02:32:57;;;;;;;10.25;7.85;;;;;;;17.65;91.36;101817.03;5031882;28;20490;-74
2022/08/24 02:35:25;;;;;;;8.55;7.75;;;;;;;17.65;90.53;101819.72;5033279;28;20104;-74
2022/08/24 02:37:52;;;;;;;8.18;7.57;;;;;;;17.61;91.47;101808.34;5031632;28;20042;-74
2022/08/24 02:40:18;;;;;;;9.07;8.23;;;;;;;17.60;90.90;101811.50;5032158;28;20057;-74
2022/08/24 02:42:45;;;;;;;8.15;7.38;;;;;;;17.58;91.23;101803.91;5015386;28;20093;-75
2022/08/24 02:45:13;;;;;;;8.13;7.53;;;;;;;17.58;91.71;101808.56;5015255;28;20471;-74
2022/08/24 02:47:39;;;;;;;8.13;7.43;;;;;;;17.57;90.89;101810.50;5031751;28;20137;-75
2022/08/24 02:50:10;;;;;;;14.45;7.88;;;;;;;17.57;90.66;101813.19;5033255;28;20128;-74
2022/08/24 02:52:38;;;;;;;8.13;7.43;;;;;;;17.56;90.93;101809.03;5031192;28;20045;-74
2022/08/24 02:55:08;;;;;;;7.90;7.10;;;;;;;17.53;90.90;101809.19;5031667;28;20117;-75
2022/08/24 02:57:35;;;;;;;7.15;6.72;;;;;;;17.48;90.32;101809.84;5031701;28;20052;-75
2022/08/24 03:00:08;;;;;;;7.53;6.65;;;;;;;17.45;90.60;101806.13;5031606;28;20156;-75
2022/08/24 03:02:39;;;;;;;7.93;7.32;;;;;;;17.44;90.02;101814.66;5020883;28;20054;-75
2022/08/24 03:05:08;;;;;;;8.27;7.43;;;;;;;17.41;89.97;101816.31;5037088;28;20098;-75
2022/08/24 03:07:36;;;;;;;8.15;7.45;;;;;;;17.36;90.65;101816.94;5030423;28;20537;-75
2022/08/24 03:10:05;;;;;;;8.10;7.05;;;;;;;17.31;91.14;101818.31;5030831;28;20046;-76
2022/08/24 03:12:33;;;;;;;8.05;7.40;;;;;;;17.27;91.10;101825.81;5011799;28;20046;-75
2022/08/24 03:15:01;;;;;;;9.60;7.47;;;;;;;17.28;91.04;101823.88;5011376;28;20472;-76
2022/08/24 03:17:30;;;;;;;10.98;7.15;;;;;;;17.25;90.63;101814.03;5011592;28;20049;-75
2022/08/24 03:19:57;;;;;;;9.00;7.68;;;;;;;17.25;90.62;101827.47;5011583;28;20051;-76
2022/08/24 03:22:24;;;;;;;8.35;7.63;;;;;;;17.21;89.88;101830.34;4994606;28;20046;-75
2022/08/24 03:24:50;;;;;;;8.27;7.18;;;;;;;17.23;90.27;101829.88;5012795;28;20117;-75
2022/08/24 03:27:17;;;;;;;8.25;7.50;;;;;;;17.21;90.71;101829.59;5013112;28;20110;-75
2022/08/24 03:29:46;;;;;;;7.65;7.05;;;;;;;17.17;90.92;101826.38;5011594;28;20050;-75
2022/08/24 03:32:15;;;;;;;7.85;7.15;;;;;;;17.15;90.51;101823.41;5011683;28;20051;-75
2022/08/24 03:34:42;;;;;;;7.72;7.10;;;;;;;17.14;90.22;101827.28;5010392;28;20586;-75
2022/08/24 03:37:08;;;;;;;8.13;7.28;;;;;;;17.09;90.46;101819.84;5011800;28;20061;-75
2022/08/24 03:39:35;;;;;;;9.40;7.53;;;;;;;17.07;90.35;101817.59;5023723;28;20060;-75
2022/08/24 03:42:02;;;;;;;9.88;7.20;;;;;;;17.10;90.89;101821.31;5032428;28;20046;-75
2022/08/24 03:44:29;;;;;;;7.10;6.40;;;;;;;17.08;90.25;101823.72;5014520;28;20054;-75
2022/08/24 03:46:56;;;;;;;7.25;6.55;;;;;;;17.03;90.49;101817.03;5011091;28;20054;-75
2022/08/24 03:49:25;;;;;;;6.88;6.20;;;;;;;17.02;90.48;101818.22;5011276;28;20049;-75
2022/08/24 03:51:52;;;;;;;6.68;6.15;;;;;;;17.01;90.51;101824.81;5010257;28;20042;-75
2022/08/24 03:54:21;;;;;;;9.63;7.00;;;;;;;16.98;90.76;101821.09;5010221;28;20525;-75
2022/08/24 03:56:49;;;;;;;8.52;7.13;;;;;;;16.97;91.43;101824.25;5010956;28;20522;-75
2022/08/24 03:59:15;;;;;;;8.40;7.70;;;;;;;16.96;90.58;101831.56;5011345;28;20563;-75
2022/08/24 04:01:48;;;;;;;8.10;7.40;;;;;;;16.94;91.25;101823.19;5011002;28;20602;-75
2022/08/24 04:04:14;;;;;;;7.80;7.10;;;;;;;16.89;91.06;101818.44;5010761;28;20057;-75
2022/08/24 04:06:45;;;;;;;8.82;7.93;;;;;;;16.88;91.10;101825.03;5010403;28;20050;-76
2022/08/24 04:09:12;;;;;;;9.27;8.48;;;;;;;16.83;91.52;101827.59;5008476;28;20052;-75
2022/08/24 04:11:44;;;;;;;10.30;9.30;;;;;;;16.79;92.40;101822.41;5009747;28;20526;-75
2022/08/24 04:14:15;;;;;;;12.90;9.20;;;;;;;16.77;92.54;101827.50;5030346;28;20046;-75
2022/08/24 04:17:22;;;;;;;11.95;9.57;;;;;;;16.76;91.46;101820.63;5031055;28;20593;-75
2022/08/24 04:19:58;;;;;;;10.70;9.65;;;;;;;16.77;91.42;101824.06;5029833;28;20046;-75
2022/08/24 04:22:43;;;;;;;9.48;8.57;;;;;;;16.80;91.37;101831.94;5031915;28;20125;-75
2022/08/24 04:25:11;;;;;;;10.23;9.25;;;;;;;16.81;91.70;101833.44;5014057;28;20537;-76
2022/08/24 04:27:39;;;;;;;10.05;9.07;;;;;;;16.77;91.35;101835.56;5046973;28;20042;-75
2022/08/24 04:30:08;;;;;;;13.27;9.27;;;;;;;16.71;92.00;101831.25;5046831;28;20053;-75
2022/08/24 04:32:51;;;;;;;10.18;9.10;;;;;;;16.75;91.46;101832.59;5046674;28;20065;-75
2022/08/24 04:35:18;;;;;;;11.75;9.98;;;;;;;16.76;91.67;101827.94;5029698;28;20057;-75
2022/08/24 04:37:45;;;;;;;10.25;9.35;;;;;;;16.75;91.63;101837.97;5031157;28;20049;-76
2022/08/24 04:40:12;;;;;;;11.63;8.52;;;;;;;16.73;91.75;101834.97;5029597;28;20057;-76
2022/08/24 04:42:44;;;;;;;8.82;8.13;;;;;;;16.72;91.90;101830.81;5031584;28;20133;-76
2022/08/24 04:45:14;;;;;;;11.30;8.77;;;;;;;16.72;91.73;101833.50;5011494;28;20936;-76
2022/08/24 04:47:44;;;;;;;8.43;7.60;;;;;;;16.74;91.27;101846.47;5019018;28;20140;-76
2022/08/24 04:50:11;;;;;;;8.32;7.55;;;;;;;16.75;91.31;101843.34;5029458;28;20985;-75
2022/08/24 04:52:38;;;;;;;8.63;7.70;;;;;;;16.76;91.22;101844.09;5017063;28;20097;-76
2022/08/24 04:55:05;;;;;;;9.80;8.07;;;;;;;16.76;91.26;101841.41;5010050;28;20546;-76
2022/08/24 04:57:34;;;;;;;8.32;7.10;;;;;;;16.76;91.05;101844.84;5010119;28;20091;-75
2022/08/24 05:00:02;;;;;;;9.82;7.80;;;;;;;16.76;91.29;101839.44;5010310;28;20051;-74
2022/08/24 05:02:29;;;;;;;8.88;7.88;;;;;;;16.73;91.54;101847.69;5009910;28;20054;-74
2022/08/24 05:05:00;;;;;;;7.85;7.25;;;;;;;16.73;91.30;101845.75;5009985;28;20129;-74
2022/08/24 05:07:26;;;;;;;9.13;7.28;;;;;;;16.76;91.26;101850.22;5012862;28;20050;-74
2022/08/24 05:09:53;;;;;;;8.52;7.72;;;;;;;16.78;91.44;101844.38;5013474;28;20499;-74
2022/08/24 05:12:20;;;;;;;7.70;7.00;;;;;;;16.79;91.59;101848.56;5013745;28;20427;-75
2022/08/24 05:14:59;;;;;;;8.80;6.90;;;;;;;16.84;90.74;101842.53;5013281;28;20054;-74
2022/08/24 05:17:27;;;;;;;7.65;6.88;;;;;;;16.88;91.18;101859.25;4996104;28;20573;-76
2022/08/24 05:19:53;;;;;;;8.00;7.40;;;;;;;16.91;91.59;101858.34;5014695;28;20511;-74
2022/08/24 05:22:20;;;;;;;8.60;6.53;;;;;;;16.95;91.02;101858.91;5031459;28;20058;-75
2022/08/24 05:24:51;;;;;;;7.10;6.50;;;;;;;16.98;91.13;101860.69;5029526;28;20091;-75
2022/08/24 05:27:18;;;;;;;6.47;5.97;;;;;;;17.05;90.28;101862.31;5013372;28;20142;-75
2022/08/24 05:29:52;;;;;;;6.53;6.00;;;;;;;17.10;91.27;101865.13;5014537;28;20050;-75
2022/08/24 05:32:19;;;;;;;7.05;6.45;;;;;;;17.15;91.44;101863.75;5012810;28;20647;-74
2022/08/24 05:34:47;;;;;;;8.55;6.25;;;;;;;17.22;91.08;101871.44;5013347;28;20050;-75
2022/08/24 05:37:13;;;;;;;6.68;6.18;;;;;;;17.76;90.56;101867.66;5013292;28;20050;-76
2022/08/24 05:39:59;;;;;;;6.13;5.65;;;;;;;19.96;80.91;101882.53;5013003;28;20133;-75
2022/08/24 05:42:26;;;;;;;6.35;5.75;;;;;;;21.56;73.31;101872.47;5014203;28;20054;-77
2022/08/24 05:44:52;;;;;;;6.30;5.70;;;;;;;22.58;68.73;101879.41;5014281;28;20503;-73
2022/08/24 05:47:21;;;;;;;6.07;5.45;;;;;;;23.33;64.78;101885.59;5012338;28;20149;-73
2022/08/24 05:49:53;;;;;;;6.72;5.78;;;;;;;24.19;61.84;101885.31;5012786;28;20051;-73
2022/08/24 05:52:21;;;;;;;6.43;5.60;;;;;;;24.97;58.86;101878.41;5012745;28;20065;-74
2022/08/24 05:54:54;;;;;;;8.45;6.43;;;;;;;25.48;57.68;101871.81;5012366;28;20062;-77
2022/08/24 05:57:22;;;;;;;9.68;5.90;;;;;;;25.86;55.53;101877.97;5012792;28;20109;-78
2022/08/24 06:00:05;;;;;;;11.25;6.10;;;;;;;26.16;54.75;101877.72;5012634;28;20109;-74
2022/08/24 06:02:41;;;;;;;7.15;6.25;;;;;;;26.39;53.66;101871.91;5013044;28;20054;-74
2022/08/24 06:05:09;;;;;;;11.98;6.50;;;;;;;26.48;53.54;101874.94;5012175;28;20078;-73
2022/08/24 06:07:35;;;;;;;14.45;6.18;;;;;;;26.66;53.11;101880.84;5011973;28;20061;-74
2022/08/24 06:10:03;;;;;;;7.15;6.25;;;;;;;26.71;53.73;101874.53;5012609;28;20133;-72
2022/08/24 06:12:49;;;;;;;7.75;6.88;;;;;;;26.71;53.62;101874.53;5012220;28;20050;-73
2022/08/24 06:15:16;;;;;;;11.85;7.18;;;;;;;26.65;53.37;101880.09;5012154;28;20490;-73
2022/08/24 06:17:43;;;;;;;10.85;8.13;;;;;;;26.49;54.73;101883.88;5011367;28;20159;-74
2022/08/24 06:20:10;;;;;;;12.57;7.50;;;;;;;26.43;55.22;101883.97;5012158;28;20077;-73
2022/08/24 06:22:37;;;;;;;16.20;9.02;;;;;;;26.42;56.15;101890.69;5013506;28;20105;-73
2022/08/24 06:27:51;;;;;;;13.60;10.00;;;;;;;25.97;58.16;101887.22;5012260;28;20054;-74
2022/08/24 06:30:18;;;;;;;14.23;12.80;;;;;;;25.54;59.71;101899.00;5011776;28;20456;-74
2022/08/24 06:33:08;;;;;;;20.30;16.05;;;;;;;25.38;61.73;101899.94;5011958;28;20149;-74
2022/08/24 06:35:39;;;;;;;21.10;18.60;;;;;;;25.34;62.23;101896.78;5011939;28;20061;-74
2022/08/24 06:38:12;;;;;;;21.70;18.17;;;;;;;25.19;63.22;101905.41;5012106;28;20051;-74
2022/08/24 06:40:40;;;;;;;19.35;17.48;;;;;;;25.08;63.85;101905.53;5011518;28;20054;-73
2022/08/24 06:43:06;;;;;;;24.08;18.42;;;;;;;24.88;64.28;101901.25;5011691;28;20061;-74
2022/08/24 06:45:41;;;;;;;;;;;;;;;24.63;64.53;101905.97;5011862;28;20058;-74
2022/08/24 06:48:11;;;;;;;20.70;17.45;;;;;;;24.49;66.04;101901.66;4996139;28;20402;-74
2022/08/24 06:50:38;;;;;;;20.98;17.13;;;;;;;24.60;65.77;101907.00;5011667;28;20431;-74
2022/08/24 06:53:05;;;;;;;19.08;17.17;;;;;;;24.53;66.82;101904.84;5028185;28;20066;-75
2022/08/24 06:55:32;;;;;;;20.30;17.02;;;;;;;24.43;66.98;101907.16;4995341;28;20614;-74
2022/08/24 06:57:58;;;;;;;19.23;17.33;;;;;;;24.48;66.80;101911.06;5011521;28;20058;-75
2022/08/24 07:00:25;;;;;;;18.25;16.45;;;;;;;24.37;67.35;101901.03;5011264;28;20057;-74
2022/08/24 07:02:51;;;;;;;17.88;16.17;;;;;;;24.25;67.93;101905.84;5012895;28;20061;-75
2022/08/24 07:05:18;;;;;;;21.88;16.42;;;;;;;24.25;67.75;101902.38;5011677;28;20050;-75
2022/08/24 07:08:04;;;;;;;17.17;15.38;;;;;;;24.46;67.80;101906.13;5010899;28;20069;-74
2022/08/24 07:10:32;;;;;;;23.52;16.02;;;;;;;24.33;67.71;101908.00;5011491;28;20101;-75
2022/08/24 07:12:59;;;;;;;18.05;16.15;;;;;;;24.27;68.38;101911.50;5012748;28;20081;-75
2022/08/24 07:15:26;;;;;;;22.10;14.90;;;;;;;24.22;69.26;101912.25;5011026;28;20080;-74
2022/08/24 07:18:13;;;;;;;20.08;16.95;;;;;;;24.30;69.28;101917.19;5011045;28;20476;-76
2022/08/24 07:20:44;;;;;;;24.35;17.85;;;;;;;24.18;70.01;101919.22;5011263;28;20511;-75
2022/08/24 07:23:24;;;;;;;22.58;17.13;;;;;;;24.35;69.60;101916.41;5030484;28;20058;-75
2022/08/24 07:26:10;;;;;;;25.08;17.58;;;;;;;24.41;68.44;101919.78;5030765;28;20050;-76
2022/08/24 07:28:46;;;;;;;21.95;16.88;;;;;;;24.49;69.13;101921.44;5046683;28;20461;-76
2022/08/24 07:31:14;;;;;;;21.00;17.27;;;;;;;24.64;69.14;101923.06;5031976;28;20557;-76
2022/08/24 07:33:50;;;;;;;23.90;17.27;;;;;;;24.76;67.74;101919.72;5030680;28;20054;-75
2022/08/24 07:36:18;;;;;;;22.67;17.25;;;;;;;24.83;67.11;101918.38;5030983;28;20041;-81
2022/08/24 07:38:52;;;;;;;31.67;18.08;;;;;;;25.00;67.26;101921.72;5014412;28;20137;-76
2022/08/24 07:41:26;;;;;;;24.47;16.80;;;;;;;25.23;66.01;101922.91;5032539;28;20050;-77
2022/08/24 07:44:15;;;;;;;27.30;17.75;;;;;;;25.39;66.26;101918.50;5030474;28;20069;-83
2022/08/24 07:46:42;;;;;;;21.58;16.60;;;;;;;25.55;65.87;101925.72;5016429;28;20549;-90
2022/08/24 07:49:11;;;;;;;18.38;16.20;;;;;;;25.53;65.73;101922.03;5032483;28;20156;-89
2022/08/24 07:52:01;;;;;;;23.10;17.10;;;;;;;25.64;64.72;101924.63;5032976;28;20050;-90
2022/08/24 07:54:27;;;;;;;22.92;17.25;;;;;;;25.60;63.61;101924.91;5030758;28;20596;-85
2022/08/24 07:56:55;;;;;;;26.52;17.30;;;;;;;25.54;64.09;101921.53;5029527;28;20077;-82
2022/08/24 07:59:21;;;;;;;18.70;16.77;;;;;;;25.64;63.98;101927.34;5030498;28;20046;-82
2022/08/24 08:01:51;;;;;;;19.08;16.80;;;;;;;25.78;63.90;101925.44;5030267;28;20038;-81
2022/08/24 08:04:23;;;;;;;19.58;17.25;;;;;;;25.77;63.47;101932.16;5030551;28;20046;-82
2022/08/24 08:06:51;;;;;;;18.00;16.27;;;;;;;25.90;64.56;101932.94;5030168;28;20058;-83
2022/08/24 08:09:18;;;;;;;19.95;17.10;;;;;;;26.01;62.92;101925.81;5030334;28;20057;-82
2022/08/24 08:11:44;;;;;;;20.55;16.30;;;;;;;26.13;61.92;101933.31;5031126;28;20059;-76
2022/08/24 08:14:13;;;;;;;18.90;16.92;;;;;;;26.25;62.30;101931.16;5030077;28;20052;-77
2022/08/24 08:16:40;;;;;;;18.40;16.45;;;;;;;26.22;61.81;101940.38;5029890;28;20478;-77
2022/08/24 08:19:07;;;;;;;17.92;16.13;;;;;;;26.28;60.70;101932.09;5030247;28;20045;-77
2022/08/24 08:24:33;;;;;;;24.60;16.48;;;;;;;26.64;61.39;101940.69;5029994;28;20196;-77
2022/08/24 08:27:01;;;;;;;23.50;16.30;;;;;;;26.73;61.38;101941.03;5046152;28;20050;-77
2022/08/24 08:29:40;;;;;;;18.02;15.07;;;;;;;26.84;60.02;101948.25;5029916;28;20521;-77
2022/08/24 08:32:09;;;;;;;18.50;14.25;;;;;;;27.01;60.77;101953.44;5046723;28;20054;-77
2022/08/24 08:34:36;;;;;;;17.73;14.45;;;;;;;27.16;59.36;101954.38;5030027;28;20108;-78
2022/08/24 08:37:03;;;;;;;14.27;12.48;;;;;;;27.26;58.01;101953.94;5029510;28;20058;-77
2022/08/24 08:39:30;;;;;;;16.65;11.55;;;;;;;27.28;58.65;101957.63;5029536;28;20657;-77
2022/08/24 08:42:13;;;;;;;;;;;;;;;27.45;59.14;101954.53;5032793;28;20518;-77
2022/08/24 08:45:01;;;;;;;16.13;12.13;;;;;;;27.72;57.79;101955.94;5050132;28;19926;-77
2022/08/24 08:47:52;;;;;;;11.45;9.10;;;;;;;28.01;58.02;101947.81;5033238;28;20054;-77
2022/08/24 08:50:39;;;;;;;12.23;7.47;;;;;;;27.98;56.23;101954.41;5033201;28;20121;-77
2022/08/24 08:53:42;;;;;;;8.45;7.55;;;;;;;28.06;56.12;101955.91;5033386;28;20546;-77
2022/08/24 08:56:34;;;;;;;10.07;8.63;;;;;;;27.96;56.78;101954.19;5032727;28;20136;-77
2022/08/24 08:59:32;;;;;;;10.27;8.10;;;;;;;27.79;57.55;101954.56;5033115;28;20053;-77
2022/08/24 09:02:21;;;;;;;9.75;6.18;;;;;;;27.92;56.38;101954.53;5017097;28;20050;-77
2022/08/24 09:05:19;;;;;;;8.13;4.55;;;;;;;28.13;55.02;101957.25;5033112;28;20054;-78
2022/08/24 09:08:00;;;;;;;5.80;4.10;;;;;;;28.21;54.31;101955.34;5032917;28;20089;-78
2022/08/24 09:10:47;;;;;;;3.88;3.33;;;;;;;28.20;55.14;101954.59;5032252;28;20050;-77
2022/08/24 09:13:34;;;;;;;4.03;3.72;;;;;;;28.33;53.68;101953.81;5034716;28;20049;-77
2022/08/24 09:16:17;;;;;;;3.65;3.30;;;;;;;28.62;53.57;101951.81;5033147;28;20133;-77
2022/08/24 09:19:16;;;;;;;3.67;3.28;;;;;;;28.61;52.85;101955.81;5034301;28;20145;-77
2022/08/24 09:22:08;;;;;;;6.28;3.00;;;;;;;28.77;52.59;101953.94;5031803;28;20057;-78
2022/08/24 09:25:03;;;;;;;3.00;2.80;;;;;;;28.85;52.09;101955.44;5032504;28;20076;-77
2022/08/24 09:28:02;;;;;;;3.47;2.58;;;;;;;29.02;52.27;101951.53;5032615;28;20053;-78
2022/08/24 09:30:50;;;;;;;5.57;2.30;;;;;;;29.12;51.74;101952.47;5016723;28;20189;-80
2022/08/24 09:33:21;;;;;;;5.03;2.30;;;;;;;29.28;50.54;101947.78;5034521;28;20058;-77
2022/08/24 09:36:06;;;;;;;;;;;;;;;29.45;52.19;101948.78;5035060;28;20037;-77
2022/08/24 09:38:57;;;;;;;2.40;2.10;;;;;;;29.38;51.31;101949.47;5034634;28;19925;-80
2022/08/24 09:42:02;;;;;;;4.88;2.13;;;;;;;29.38;49.69;101941.25;5034281;28;20144;-77
2022/08/24 09:44:59;;;;;;;1.98;1.88;;;;;;;29.57;51.79;101948.47;5032531;28;20058;-80
2022/08/24 09:47:37;;;;;;;2.28;2.08;;;;;;;29.73;49.24;101949.94;5032523;28;20046;-82
2022/08/24 09:50:41;;;;;;;5.57;2.20;;;;;;;29.87;49.77;101940.28;5033871;28;20097;-77
2022/08/24 09:53:33;;;;;;;4.90;2.35;;;;;;;29.94;50.17;101945.03;5033259;28;20700;-77
2022/08/24 09:56:13;;;;;;;2.67;2.47;;;;;;;30.16;49.75;101947.06;5033947;28;20193;-79
2022/08/24 09:59:20;;;;;;;3.72;2.35;;;;;;;30.24;48.62;101941.59;5033710;28;21325;-78
2022/08/24 10:02:51;;;;;;;2.83;2.20;;;;;;;30.50;48.03;101945.94;5034407;28;20050;-82
2022/08/24 10:05:36;;;;;;;2.55;2.15;;;;;;;30.49;47.11;101939.72;4972492;28;20098;-77
2022/08/24 10:08:47;;;;;;;3.13;2.05;;;;;;;30.51;47.82;101941.91;4971833;28;20090;-80
2022/08/24 10:11:35;;;;;;;2.13;2.00;;;;;;;30.63;48.17;101934.06;4935743;29;20063;-81
2022/08/24 10:14:29;;;;;;;2.45;2.20;;;;;;;30.66;47.43;101936.44;4935297;29;20104;-85
2022/08/24 10:17:31;;;;;;;5.03;1.92;;;;;;;30.86;47.54;101937.47;4945667;29;20521;-84
2022/08/24 10:20:08;;;;;;;2.03;1.90;;;;;;;30.87;46.46;101935.44;4936796;29;20131;-77
2022/08/24 10:22:56;;;;;;;2.38;2.17;;;;;;;31.20;44.76;101931.47;4933340;29;20064;-77
2022/08/24 10:25:55;;;;;;;2.83;1.95;;;;;;;31.36;43.48;101924.63;4933349;29;20052;-78
2022/08/24 10:28:50;;;;;;;4.38;2.10;;;;;;;31.47;44.71;101926.94;4933482;29;20151;-75
2022/08/24 10:31:20;;;;;;;2.00;1.90;;;;;;;31.58;43.15;101919.53;4933855;29;20096;-76
2022/08/24 10:34:01;;;;;;;2.37;1.87;;;;;;;31.41;43.45;101920.91;4933044;29;20139;-76
2022/08/24 10:36:46;;;;;;;3.17;1.70;;;;;;;31.58;43.88;101919.53;4932649;29;20055;-75
2022/08/24 10:39:44;;;;;;;3.20;1.90;;;;;;;31.59;44.46;101915.50;4957901;28;20559;-75
2022/08/24 10:45:41;;;;;;;4.95;1.70;;;;;;;32.00;41.80;101923.09;5033371;28;20097;-73
2022/08/24 10:48:27;;;;;;;4.22;1.70;;;;;;;32.00;42.15;101906.56;5033262;28;20054;-76
2022/08/24 10:51:00;;;;;;;2.65;1.80;;;;;;;32.01;42.33;101918.31;5032306;28;20104;-76
2022/08/24 10:53:29;;;;;;;1.80;1.70;;;;;;;32.09;41.95;101911.44;5032877;28;20053;-76
2022/08/24 10:56:04;;;;;;;1.63;1.58;;;;;;;32.08;42.36;101915.50;5032773;28;20495;-74
2022/08/24 10:58:42;;;;;;;5.10;1.65;;;;;;;32.08;41.59;101912.75;5032972;28;20050;-75
2022/08/24 11:01:28;;;;;;;1.75;1.65;;;;;;;32.10;40.96;101901.88;5032587;28;20072;-75
2022/08/24 11:04:00;;;;;;;7.95;1.77;;;;;;;32.13;40.23;101909.03;5032688;28;20052;-76
2022/08/24 11:06:31;;;;;;;22.40;20.08;;;;;;;32.26;42.05;101908.03;5032599;28;20116;-75
2022/08/24 11:09:02;;;;;;;3.00;2.20;;;;;;;32.24;40.06;101902.34;5032457;28;20042;-75
2022/08/24 11:11:41;;;;;;;1.60;1.50;;;;;;;32.25;40.78;101912.06;5032404;28;20093;-79
2022/08/24 11:14:22;;;;;;;3.17;1.42;;;;;;;32.12;41.15;101898.56;5032812;28;20050;-75
2022/08/24 11:16:50;;;;;;;1.50;1.42;;;;;;;32.23;41.13;101902.91;5032471;28;20470;-75
2022/08/24 11:19:25;;;;;;;3.33;1.65;;;;;;;32.04;40.69;101904.16;5032511;28;20093;-78
2022/08/24 11:21:54;;;;;;;1.50;1.50;;;;;;;31.74;41.00;101898.91;5030935;28;20093;-79
2022/08/24 11:24:37;;;;;;;1.70;1.60;;;;;;;31.90;40.62;101899.50;5030161;28;20116;-77
2022/08/24 11:27:30;;;;;;;1.40;1.30;;;;;;;31.99;40.54;101896.84;5030395;28;20104;-80
2022/08/24 11:30:00;;;;;;;3.65;1.50;;;;;;;32.09;40.57;101902.44;5030441;28;20105;-80
2022/08/24 11:32:31;;;;;;;1.67;1.45;;;;;;;32.13;39.84;101897.28;5031595;28;20050;-77
2022/08/24 11:35:03;;;;;;;;;;;;;;;32.21;40.91;101894.47;5031741;28;20108;-77
2022/08/24 11:37:33;;;;;;;1.75;1.48;;;;;;;32.14;39.00;101899.47;5051968;28;20318;-79
2022/08/24 11:40:01;;;;;;;1.45;1.35;;;;;;;32.15;38.26;101895.41;5031359;28;20075;-77
2022/08/24 11:42:48;;;;;;;2.60;1.40;;;;;;;32.15;39.96;101895.41;5031384;28;20073;-76
2022/08/24 11:45:23;;;;;;;1.20;1.20;;;;;;;32.12;39.17;101899.31;5031181;28;20045;-76
2022/08/24 11:47:54;;;;;;;1.35;1.30;;;;;;;31.98;39.11;101900.19;5031791;28;20042;-75
2022/08/24 11:50:24;;;;;;;;;;;;;;;32.21;39.14;101892.44;5044123;28;20057;-77
2022/08/24 11:53:09;;;;;;;5.18;1.50;;;;;;;32.14;38.48;101893.22;5031240;28;20464;-76
2022/08/24 11:55:59;;;;;;;5.32;1.63;;;;;;;31.98;38.49;101897.44;5031495;28;20056;-75
2022/08/24 11:58:41;;;;;;;3.33;1.50;;;;;;;31.92;38.73;101892.16;5032150;28;20045;-76
2022/08/24 12:01:26;;;;;;;2.92;1.38;;;;;;;31.87;39.46;101895.13;5031911;28;20050;-76
2022/08/24 12:04:05;;;;;;;2.10;1.35;;;;;;;31.76;39.60;101899.06;5031379;28;20106;-77
2022/08/24 12:06:58;;;;;;;2.00;1.52;;;;;;;31.46;39.98;101889.72;5030353;28;20054;-82